sensor_id;sensor_type;location;lat;lon;timestamp;P1;durP1;ratioP1;P2;durP2;ratioP2
18612;SDS011;9436;52.152;21.032;2023-02-20T00:00:19;4.60;;;2.93;;
18612;SDS011;9436;52.152;21.032;2023-02-20T00:02:48;7.83;;;3.43;;
18612;SDS011;9436;52.152;21.032;2023-02-20T00:05:15;6.63;;;3.37;;
18612;SDS011;9436;52.152;21.032;2023-02-20T00:07:43;6.40;;;3.50;;
18612;SDS011;9436;52.152;21.032;2023-02-20T00:10:11;6.60;;;3.77;;
18612;SDS011;9436;52.152;21.032;2023-02-20T00:12:39;9.80;;;3.93;;
18612;SDS011;9436;52.152;21.032;2023-02-20T00:15:07;6.47;;;3.10;;
18612;SDS011;9436;52.152;21.032;2023-02-20T00:17:34;7.57;;;3.50;;
18612;SDS011;9436;52.152;21.032;2023-02-20T00:20:02;7.50;;;3.50;;
18612;SDS011;9436;52.152;21.032;2023-02-20T00:22:29;7.13;;;3.27;;
18612;SDS011;9436;52.152;21.032;2023-02-20T00:24:56;5.83;;;3.30;;
18612;SDS011;9436;52.152;21.032;2023-02-20T00:27:25;6.47;;;3.40;;
18612;SDS011;9436;52.152;21.032;2023-02-20T00:29:52;6.17;;;3.17;;
18612;SDS011;9436;52.152;21.032;2023-02-20T00:32:19;6.93;;;3.33;;
18612;SDS011;9436;52.152;21.032;2023-02-20T00:34:46;9.30;;;3.50;;
18612;SDS011;9436;52.152;21.032;2023-02-20T00:37:13;7.57;;;3.20;;
18612;SDS011;9436;52.152;21.032;2023-02-20T00:39:40;7.40;;;3.30;;
18612;SDS011;9436;52.152;21.032;2023-02-20T00:42:07;9.40;;;3.37;;
18612;SDS011;9436;52.152;21.032;2023-02-20T00:44:35;7.50;;;3.20;;
18612;SDS011;9436;52.152;21.032;2023-02-20T00:47:03;6.67;;;3.17;;
18612;SDS011;9436;52.152;21.032;2023-02-20T00:49:30;9.67;;;3.70;;
18612;SDS011;9436;52.152;21.032;2023-02-20T00:51:57;9.40;;;3.43;;
18612;SDS011;9436;52.152;21.032;2023-02-20T00:54:24;6.20;;;3.13;;
18612;SDS011;9436;52.152;21.032;2023-02-20T00:56:51;7.10;;;3.53;;
18612;SDS011;9436;52.152;21.032;2023-02-20T00:59:18;6.43;;;3.37;;
18612;SDS011;9436;52.152;21.032;2023-02-20T01:01:47;6.60;;;3.00;;
18612;SDS011;9436;52.152;21.032;2023-02-20T01:04:14;7.83;;;3.40;;
18612;SDS011;9436;52.152;21.032;2023-02-20T01:06:41;7.20;;;3.13;;
18612;SDS011;9436;52.152;21.032;2023-02-20T01:09:08;7.83;;;3.13;;
18612;SDS011;9436;52.152;21.032;2023-02-20T01:11:36;6.17;;;3.67;;
18612;SDS011;9436;52.152;21.032;2023-02-20T01:14:03;6.30;;;3.53;;
18612;SDS011;9436;52.152;21.032;2023-02-20T01:16:30;7.60;;;3.60;;
18612;SDS011;9436;52.152;21.032;2023-02-20T01:18:58;7.20;;;3.50;;
18612;SDS011;9436;52.152;21.032;2023-02-20T01:21:25;7.50;;;3.90;;
18612;SDS011;9436;52.152;21.032;2023-02-20T01:23:52;8.37;;;3.47;;
18612;SDS011;9436;52.152;21.032;2023-02-20T01:26:20;5.77;;;3.20;;
18612;SDS011;9436;52.152;21.032;2023-02-20T01:28:47;6.60;;;3.13;;
18612;SDS011;9436;52.152;21.032;2023-02-20T01:31:14;8.70;;;3.67;;
18612;SDS011;9436;52.152;21.032;2023-02-20T01:33:41;5.60;;;3.27;;
18612;SDS011;9436;52.152;21.032;2023-02-20T01:36:10;9.03;;;3.70;;
18612;SDS011;9436;52.152;21.032;2023-02-20T01:38:38;6.77;;;3.43;;
18612;SDS011;9436;52.152;21.032;2023-02-20T01:41:06;7.63;;;3.20;;
18612;SDS011;9436;52.152;21.032;2023-02-20T01:43:33;8.07;;;3.33;;
18612;SDS011;9436;52.152;21.032;2023-02-20T01:49:05;6.70;;;3.50;;
18612;SDS011;9436;52.152;21.032;2023-02-20T01:51:38;8.10;;;3.43;;
18612;SDS011;9436;52.152;21.032;2023-02-20T01:54:09;8.07;;;3.57;;
18612;SDS011;9436;52.152;21.032;2023-02-20T01:56:39;6.40;;;3.63;;
18612;SDS011;9436;52.152;21.032;2023-02-20T01:59:09;6.57;;;3.47;;
18612;SDS011;9436;52.152;21.032;2023-02-20T02:01:37;6.10;;;3.47;;
18612;SDS011;9436;52.152;21.032;2023-02-20T02:04:05;6.80;;;3.30;;
18612;SDS011;9436;52.152;21.032;2023-02-20T02:06:35;6.77;;;3.10;;
18612;SDS011;9436;52.152;21.032;2023-02-20T02:09:09;7.13;;;3.17;;
18612;SDS011;9436;52.152;21.032;2023-02-20T02:11:40;7.83;;;3.10;;
18612;SDS011;9436;52.152;21.032;2023-02-20T02:14:07;7.23;;;3.30;;
18612;SDS011;9436;52.152;21.032;2023-02-20T02:16:35;5.80;;;3.40;;
18612;SDS011;9436;52.152;21.032;2023-02-20T02:19:12;8.17;;;3.30;;
18612;SDS011;9436;52.152;21.032;2023-02-20T02:22:10;6.23;;;2.90;;
18612;SDS011;9436;52.152;21.032;2023-02-20T02:25:12;6.40;;;3.20;;
18612;SDS011;9436;52.152;21.032;2023-02-20T02:31:03;6.83;;;3.00;;
18612;SDS011;9436;52.152;21.032;2023-02-20T02:34:02;7.77;;;3.10;;
18612;SDS011;9436;52.152;21.032;2023-02-20T02:37:01;5.80;;;3.00;;
18612;SDS011;9436;52.152;21.032;2023-02-20T02:39:35;6.87;;;3.13;;
18612;SDS011;9436;52.152;21.032;2023-02-20T02:42:09;7.73;;;3.37;;
18612;SDS011;9436;52.152;21.032;2023-02-20T02:44:44;6.83;;;3.20;;
18612;SDS011;9436;52.152;21.032;2023-02-20T02:47:16;8.10;;;3.40;;
18612;SDS011;9436;52.152;21.032;2023-02-20T02:49:48;6.40;;;3.20;;
18612;SDS011;9436;52.152;21.032;2023-02-20T02:52:22;7.83;;;3.07;;
18612;SDS011;9436;52.152;21.032;2023-02-20T02:55:14;5.80;;;3.03;;
18612;SDS011;9436;52.152;21.032;2023-02-20T02:57:43;4.87;;;3.13;;
18612;SDS011;9436;52.152;21.032;2023-02-20T03:00:11;9.10;;;3.47;;
18612;SDS011;9436;52.152;21.032;2023-02-20T03:02:44;10.73;;;3.70;;
18612;SDS011;9436;52.152;21.032;2023-02-20T03:05:16;5.13;;;3.07;;
18612;SDS011;9436;52.152;21.032;2023-02-20T03:07:49;6.57;;;3.33;;
18612;SDS011;9436;52.152;21.032;2023-02-20T03:10:20;6.07;;;3.33;;
18612;SDS011;9436;52.152;21.032;2023-02-20T03:12:57;6.87;;;3.60;;
18612;SDS011;9436;52.152;21.032;2023-02-20T03:15:29;6.40;;;3.67;;
18612;SDS011;9436;52.152;21.032;2023-02-20T03:17:59;5.40;;;3.03;;
18612;SDS011;9436;52.152;21.032;2023-02-20T03:20:36;5.77;;;2.80;;
18612;SDS011;9436;52.152;21.032;2023-02-20T03:23:08;4.57;;;3.00;;
18612;SDS011;9436;52.152;21.032;2023-02-20T03:25:40;6.47;;;3.10;;
18612;SDS011;9436;52.152;21.032;2023-02-20T03:28:15;7.17;;;3.13;;
18612;SDS011;9436;52.152;21.032;2023-02-20T03:30:47;5.70;;;3.10;;
18612;SDS011;9436;52.152;21.032;2023-02-20T03:33:20;6.10;;;3.10;;
18612;SDS011;9436;52.152;21.032;2023-02-20T03:36:08;8.17;;;3.47;;
18612;SDS011;9436;52.152;21.032;2023-02-20T03:38:58;6.40;;;3.13;;
18612;SDS011;9436;52.152;21.032;2023-02-20T03:41:46;7.87;;;3.10;;
18612;SDS011;9436;52.152;21.032;2023-02-20T03:44:32;6.13;;;3.17;;
18612;SDS011;9436;52.152;21.032;2023-02-20T03:46:59;4.27;;;2.70;;
18612;SDS011;9436;52.152;21.032;2023-02-20T03:49:29;5.63;;;2.80;;
18612;SDS011;9436;52.152;21.032;2023-02-20T03:52:00;6.77;;;3.10;;
18612;SDS011;9436;52.152;21.032;2023-02-20T03:54:29;4.57;;;2.70;;
18612;SDS011;9436;52.152;21.032;2023-02-20T03:56:58;5.70;;;2.90;;
18612;SDS011;9436;52.152;21.032;2023-02-20T03:59:29;7.10;;;3.50;;
18612;SDS011;9436;52.152;21.032;2023-02-20T04:02:02;6.60;;;2.73;;
18612;SDS011;9436;52.152;21.032;2023-02-20T04:04:35;5.20;;;2.57;;
18612;SDS011;9436;52.152;21.032;2023-02-20T04:07:06;6.20;;;2.63;;
18612;SDS011;9436;52.152;21.032;2023-02-20T04:09:40;5.17;;;2.90;;
18612;SDS011;9436;52.152;21.032;2023-02-20T04:12:12;5.90;;;2.73;;
18612;SDS011;9436;52.152;21.032;2023-02-20T04:14:42;6.87;;;2.90;;
18612;SDS011;9436;52.152;21.032;2023-02-20T04:17:12;7.00;;;3.17;;
18612;SDS011;9436;52.152;21.032;2023-02-20T04:19:44;7.80;;;2.90;;
18612;SDS011;9436;52.152;21.032;2023-02-20T04:22:13;4.40;;;2.97;;
18612;SDS011;9436;52.152;21.032;2023-02-20T04:24:47;4.67;;;2.80;;
18612;SDS011;9436;52.152;21.032;2023-02-20T04:27:18;6.43;;;2.90;;
18612;SDS011;9436;52.152;21.032;2023-02-20T04:29:46;6.93;;;2.80;;
18612;SDS011;9436;52.152;21.032;2023-02-20T04:32:13;6.27;;;2.70;;
18612;SDS011;9436;52.152;21.032;2023-02-20T04:34:40;4.20;;;2.70;;
18612;SDS011;9436;52.152;21.032;2023-02-20T04:37:08;4.27;;;2.90;;
18612;SDS011;9436;52.152;21.032;2023-02-20T04:39:37;4.67;;;2.70;;
18612;SDS011;9436;52.152;21.032;2023-02-20T04:42:06;8.17;;;3.03;;
18612;SDS011;9436;52.152;21.032;2023-02-20T04:44:33;5.60;;;2.90;;
18612;SDS011;9436;52.152;21.032;2023-02-20T04:47:01;4.37;;;2.90;;
18612;SDS011;9436;52.152;21.032;2023-02-20T04:49:30;6.30;;;2.97;;
18612;SDS011;9436;52.152;21.032;2023-02-20T04:51:57;5.30;;;2.70;;
18612;SDS011;9436;52.152;21.032;2023-02-20T04:54:24;4.67;;;2.90;;
18612;SDS011;9436;52.152;21.032;2023-02-20T04:56:52;4.97;;;2.70;;
18612;SDS011;9436;52.152;21.032;2023-02-20T04:59:20;5.67;;;2.93;;
18612;SDS011;9436;52.152;21.032;2023-02-20T05:01:47;8.63;;;3.03;;
18612;SDS011;9436;52.152;21.032;2023-02-20T05:04:16;5.37;;;2.87;;
18612;SDS011;9436;52.152;21.032;2023-02-20T05:06:44;4.90;;;2.97;;
18612;SDS011;9436;52.152;21.032;2023-02-20T05:09:13;7.17;;;2.97;;
18612;SDS011;9436;52.152;21.032;2023-02-20T05:11:41;7.67;;;2.93;;
18612;SDS011;9436;52.152;21.032;2023-02-20T05:14:09;8.10;;;2.90;;
18612;SDS011;9436;52.152;21.032;2023-02-20T05:16:37;6.77;;;3.10;;
18612;SDS011;9436;52.152;21.032;2023-02-20T05:19:05;3.63;;;2.53;;
18612;SDS011;9436;52.152;21.032;2023-02-20T05:21:33;8.80;;;3.30;;
18612;SDS011;9436;52.152;21.032;2023-02-20T05:24:18;6.77;;;2.70;;
18612;SDS011;9436;52.152;21.032;2023-02-20T05:26:45;6.40;;;2.83;;
18612;SDS011;9436;52.152;21.032;2023-02-20T05:29:12;5.47;;;2.97;;
18612;SDS011;9436;52.152;21.032;2023-02-20T05:31:41;5.27;;;3.00;;
18612;SDS011;9436;52.152;21.032;2023-02-20T05:34:08;6.00;;;2.70;;
18612;SDS011;9436;52.152;21.032;2023-02-20T05:36:35;5.83;;;2.80;;
18612;SDS011;9436;52.152;21.032;2023-02-20T05:39:02;7.53;;;2.80;;
18612;SDS011;9436;52.152;21.032;2023-02-20T05:41:30;7.10;;;2.83;;
18612;SDS011;9436;52.152;21.032;2023-02-20T05:43:57;6.57;;;2.90;;
18612;SDS011;9436;52.152;21.032;2023-02-20T05:46:25;5.17;;;3.00;;
18612;SDS011;9436;52.152;21.032;2023-02-20T05:48:54;8.40;;;3.00;;
18612;SDS011;9436;52.152;21.032;2023-02-20T05:51:22;7.18;;;3.15;;
18612;SDS011;9436;52.152;21.032;2023-02-20T05:53:50;5.23;;;2.83;;
18612;SDS011;9436;52.152;21.032;2023-02-20T05:56:18;5.33;;;2.90;;
18612;SDS011;9436;52.152;21.032;2023-02-20T05:58:45;7.50;;;2.70;;
18612;SDS011;9436;52.152;21.032;2023-02-20T06:01:17;4.90;;;2.80;;
18612;SDS011;9436;52.152;21.032;2023-02-20T06:03:44;5.03;;;2.73;;
18612;SDS011;9436;52.152;21.032;2023-02-20T06:06:13;5.47;;;2.70;;
18612;SDS011;9436;52.152;21.032;2023-02-20T06:08:41;4.80;;;2.70;;
18612;SDS011;9436;52.152;21.032;2023-02-20T06:11:08;5.97;;;2.70;;
18612;SDS011;9436;52.152;21.032;2023-02-20T06:13:38;4.70;;;2.73;;
18612;SDS011;9436;52.152;21.032;2023-02-20T06:16:06;4.87;;;2.57;;
18612;SDS011;9436;52.152;21.032;2023-02-20T06:18:33;7.43;;;3.20;;
18612;SDS011;9436;52.152;21.032;2023-02-20T06:21:05;6.27;;;2.90;;
18612;SDS011;9436;52.152;21.032;2023-02-20T06:23:36;5.50;;;2.70;;
18612;SDS011;9436;52.152;21.032;2023-02-20T06:26:03;4.77;;;2.93;;
18612;SDS011;9436;52.152;21.032;2023-02-20T06:28:30;5.07;;;2.90;;
18612;SDS011;9436;52.152;21.032;2023-02-20T06:30:58;4.47;;;2.93;;
18612;SDS011;9436;52.152;21.032;2023-02-20T06:33:25;5.83;;;3.10;;
18612;SDS011;9436;52.152;21.032;2023-02-20T06:35:52;5.97;;;3.27;;
18612;SDS011;9436;52.152;21.032;2023-02-20T06:38:19;4.33;;;2.53;;
18612;SDS011;9436;52.152;21.032;2023-02-20T06:40:48;5.00;;;2.97;;
18612;SDS011;9436;52.152;21.032;2023-02-20T06:43:15;4.77;;;2.73;;
18612;SDS011;9436;52.152;21.032;2023-02-20T06:45:42;5.87;;;2.87;;
18612;SDS011;9436;52.152;21.032;2023-02-20T06:48:10;4.30;;;2.60;;
18612;SDS011;9436;52.152;21.032;2023-02-20T06:50:38;6.50;;;3.20;;
18612;SDS011;9436;52.152;21.032;2023-02-20T06:53:05;7.23;;;2.80;;
18612;SDS011;9436;52.152;21.032;2023-02-20T06:55:32;6.17;;;2.73;;
18612;SDS011;9436;52.152;21.032;2023-02-20T06:58:02;6.90;;;3.00;;
18612;SDS011;9436;52.152;21.032;2023-02-20T07:00:29;6.80;;;2.87;;
18612;SDS011;9436;52.152;21.032;2023-02-20T07:02:56;10.53;;;3.10;;
18612;SDS011;9436;52.152;21.032;2023-02-20T07:05:23;6.53;;;2.73;;
18612;SDS011;9436;52.152;21.032;2023-02-20T07:07:50;7.13;;;2.87;;
18612;SDS011;9436;52.152;21.032;2023-02-20T07:10:17;6.13;;;2.83;;
18612;SDS011;9436;52.152;21.032;2023-02-20T07:12:44;5.17;;;2.77;;
18612;SDS011;9436;52.152;21.032;2023-02-20T07:15:13;6.10;;;2.70;;
18612;SDS011;9436;52.152;21.032;2023-02-20T07:17:40;4.77;;;2.57;;
18612;SDS011;9436;52.152;21.032;2023-02-20T07:20:07;5.70;;;2.53;;
18612;SDS011;9436;52.152;21.032;2023-02-20T07:22:35;7.67;;;2.80;;
18612;SDS011;9436;52.152;21.032;2023-02-20T07:25:02;5.07;;;2.57;;
18612;SDS011;9436;52.152;21.032;2023-02-20T07:27:30;4.47;;;2.53;;
18612;SDS011;9436;52.152;21.032;2023-02-20T07:29:57;6.70;;;2.90;;
18612;SDS011;9436;52.152;21.032;2023-02-20T07:32:26;6.80;;;2.83;;
18612;SDS011;9436;52.152;21.032;2023-02-20T07:34:53;6.13;;;2.77;;
18612;SDS011;9436;52.152;21.032;2023-02-20T07:37:20;7.07;;;3.10;;
18612;SDS011;9436;52.152;21.032;2023-02-20T07:39:47;5.60;;;3.10;;
18612;SDS011;9436;52.152;21.032;2023-02-20T07:42:15;7.73;;;2.87;;
18612;SDS011;9436;52.152;21.032;2023-02-20T07:44:42;6.80;;;3.40;;
18612;SDS011;9436;52.152;21.032;2023-02-20T07:47:10;10.23;;;3.47;;
18612;SDS011;9436;52.152;21.032;2023-02-20T07:49:39;8.50;;;2.80;;
18612;SDS011;9436;52.152;21.032;2023-02-20T07:52:06;6.47;;;2.90;;
18612;SDS011;9436;52.152;21.032;2023-02-20T07:54:33;6.03;;;3.07;;
18612;SDS011;9436;52.152;21.032;2023-02-20T07:57:00;5.97;;;3.50;;
18612;SDS011;9436;52.152;21.032;2023-02-20T07:59:27;7.43;;;3.20;;
18612;SDS011;9436;52.152;21.032;2023-02-20T08:01:54;8.97;;;3.60;;
18612;SDS011;9436;52.152;21.032;2023-02-20T08:04:22;5.87;;;3.23;;
18612;SDS011;9436;52.152;21.032;2023-02-20T08:06:50;9.23;;;3.53;;
18612;SDS011;9436;52.152;21.032;2023-02-20T08:09:17;7.23;;;3.47;;
18612;SDS011;9436;52.152;21.032;2023-02-20T08:11:44;8.53;;;3.60;;
18612;SDS011;9436;52.152;21.032;2023-02-20T08:14:13;6.00;;;3.20;;
18612;SDS011;9436;52.152;21.032;2023-02-20T08:16:40;7.60;;;3.63;;
18612;SDS011;9436;52.152;21.032;2023-02-20T08:19:07;6.03;;;3.50;;
18612;SDS011;9436;52.152;21.032;2023-02-20T08:21:34;6.10;;;3.30;;
18612;SDS011;9436;52.152;21.032;2023-02-20T08:24:03;5.60;;;3.10;;
18612;SDS011;9436;52.152;21.032;2023-02-20T08:26:31;6.03;;;3.00;;
18612;SDS011;9436;52.152;21.032;2023-02-20T08:28:58;6.03;;;2.93;;
18612;SDS011;9436;52.152;21.032;2023-02-20T08:31:26;6.23;;;2.90;;
18612;SDS011;9436;52.152;21.032;2023-02-20T08:33:53;5.30;;;3.40;;
18612;SDS011;9436;52.152;21.032;2023-02-20T08:36:20;5.93;;;3.10;;
18612;SDS011;9436;52.152;21.032;2023-02-20T08:38:47;5.00;;;2.63;;
18612;SDS011;9436;52.152;21.032;2023-02-20T08:41:16;4.93;;;2.53;;
18612;SDS011;9436;52.152;21.032;2023-02-20T08:43:43;5.10;;;2.67;;
18612;SDS011;9436;52.152;21.032;2023-02-20T08:46:10;4.20;;;2.80;;
18612;SDS011;9436;52.152;21.032;2023-02-20T08:48:37;16.53;;;4.30;;
18612;SDS011;9436;52.152;21.032;2023-02-20T08:51:06;4.37;;;2.80;;
18612;SDS011;9436;52.152;21.032;2023-02-20T08:53:33;8.53;;;3.40;;
18612;SDS011;9436;52.152;21.032;2023-02-20T08:56:02;6.30;;;3.20;;
18612;SDS011;9436;52.152;21.032;2023-02-20T08:58:31;5.87;;;2.90;;
18612;SDS011;9436;52.152;21.032;2023-02-20T09:00:58;9.57;;;3.43;;
18612;SDS011;9436;52.152;21.032;2023-02-20T09:03:25;7.67;;;3.67;;
18612;SDS011;9436;52.152;21.032;2023-02-20T09:05:53;5.23;;;3.20;;
18612;SDS011;9436;52.152;21.032;2023-02-20T09:08:20;6.90;;;3.23;;
18612;SDS011;9436;52.152;21.032;2023-02-20T09:10:47;4.47;;;3.10;;
18612;SDS011;9436;52.152;21.032;2023-02-20T09:13:14;4.87;;;3.10;;
18612;SDS011;9436;52.152;21.032;2023-02-20T09:15:43;3.80;;;2.80;;
18612;SDS011;9436;52.152;21.032;2023-02-20T09:18:11;4.90;;;3.07;;
18612;SDS011;9436;52.152;21.032;2023-02-20T09:20:39;6.07;;;3.33;;
18612;SDS011;9436;52.152;21.032;2023-02-20T09:23:07;5.27;;;4.23;;
18612;SDS011;9436;52.152;21.032;2023-02-20T09:25:34;6.10;;;4.37;;
18612;SDS011;9436;52.152;21.032;2023-02-20T09:28:02;7.17;;;5.23;;
18612;SDS011;9436;52.152;21.032;2023-02-20T09:30:29;8.43;;;5.63;;
18612;SDS011;9436;52.152;21.032;2023-02-20T09:32:58;11.73;;;6.20;;
18612;SDS011;9436;52.152;21.032;2023-02-20T09:35:25;8.90;;;5.77;;
18612;SDS011;9436;52.152;21.032;2023-02-20T09:37:53;12.20;;;7.17;;
18612;SDS011;9436;52.152;21.032;2023-02-20T09:40:21;8.70;;;6.83;;
18612;SDS011;9436;52.152;21.032;2023-02-20T09:42:54;7.57;;;6.30;;
18612;SDS011;9436;52.152;21.032;2023-02-20T09:45:37;8.33;;;6.03;;
18612;SDS011;9436;52.152;21.032;2023-02-20T09:48:14;7.47;;;5.87;;
18612;SDS011;9436;52.152;21.032;2023-02-20T09:50:47;8.40;;;5.77;;
18612;SDS011;9436;52.152;21.032;2023-02-20T09:53:19;9.13;;;5.60;;
18612;SDS011;9436;52.152;21.032;2023-02-20T09:55:50;8.40;;;5.60;;
18612;SDS011;9436;52.152;21.032;2023-02-20T09:58:19;6.83;;;5.43;;
18612;SDS011;9436;52.152;21.032;2023-02-20T10:00:52;9.63;;;6.40;;
18612;SDS011;9436;52.152;21.032;2023-02-20T10:03:26;9.23;;;7.03;;
18612;SDS011;9436;52.152;21.032;2023-02-20T10:05:59;10.17;;;7.13;;
18612;SDS011;9436;52.152;21.032;2023-02-20T10:08:27;10.43;;;7.70;;
18612;SDS011;9436;52.152;21.032;2023-02-20T10:10:55;11.87;;;7.60;;
18612;SDS011;9436;52.152;21.032;2023-02-20T10:13:34;10.27;;;7.67;;
18612;SDS011;9436;52.152;21.032;2023-02-20T10:16:12;10.07;;;7.70;;
18612;SDS011;9436;52.152;21.032;2023-02-20T10:18:51;13.83;;;7.90;;
18612;SDS011;9436;52.152;21.032;2023-02-20T10:21:32;12.60;;;8.00;;
18612;SDS011;9436;52.152;21.032;2023-02-20T10:24:12;11.03;;;8.20;;
18612;SDS011;9436;52.152;21.032;2023-02-20T10:26:50;9.23;;;7.83;;
18612;SDS011;9436;52.152;21.032;2023-02-20T10:29:21;9.53;;;7.97;;
18612;SDS011;9436;52.152;21.032;2023-02-20T10:31:52;12.27;;;8.17;;
18612;SDS011;9436;52.152;21.032;2023-02-20T10:34:29;12.20;;;8.70;;
18612;SDS011;9436;52.152;21.032;2023-02-20T10:37:05;12.67;;;9.13;;
18612;SDS011;9436;52.152;21.032;2023-02-20T10:39:37;13.43;;;9.13;;
18612;SDS011;9436;52.152;21.032;2023-02-20T10:42:07;10.93;;;8.27;;
18612;SDS011;9436;52.152;21.032;2023-02-20T10:44:40;9.60;;;8.47;;
18612;SDS011;9436;52.152;21.032;2023-02-20T10:47:13;10.80;;;8.70;;
18612;SDS011;9436;52.152;21.032;2023-02-20T10:49:48;12.53;;;8.53;;
18612;SDS011;9436;52.152;21.032;2023-02-20T10:52:23;10.27;;;8.57;;
18612;SDS011;9436;52.152;21.032;2023-02-20T10:54:54;14.93;;;9.97;;
18612;SDS011;9436;52.152;21.032;2023-02-20T10:57:30;12.77;;;9.70;;
18612;SDS011;9436;52.152;21.032;2023-02-20T11:00:02;11.27;;;8.87;;
18612;SDS011;9436;52.152;21.032;2023-02-20T11:02:33;10.00;;;7.97;;
18612;SDS011;9436;52.152;21.032;2023-02-20T11:05:07;11.33;;;8.13;;
18612;SDS011;9436;52.152;21.032;2023-02-20T11:07:36;9.40;;;7.90;;
18612;SDS011;9436;52.152;21.032;2023-02-20T11:10:03;11.83;;;8.20;;
18612;SDS011;9436;52.152;21.032;2023-02-20T11:12:32;10.80;;;8.20;;
18612;SDS011;9436;52.152;21.032;2023-02-20T11:15:04;10.63;;;7.90;;
18612;SDS011;9436;52.152;21.032;2023-02-20T11:17:33;9.53;;;7.57;;
18612;SDS011;9436;52.152;21.032;2023-02-20T11:20:03;9.23;;;7.67;;
18612;SDS011;9436;52.152;21.032;2023-02-20T11:22:53;9.20;;;7.73;;
18612;SDS011;9436;52.152;21.032;2023-02-20T11:25:25;10.17;;;7.53;;
18612;SDS011;9436;52.152;21.032;2023-02-20T11:27:53;9.47;;;8.00;;
18612;SDS011;9436;52.152;21.032;2023-02-20T11:30:31;8.93;;;7.00;;
18612;SDS011;9436;52.152;21.032;2023-02-20T11:33:01;8.47;;;7.53;;
18612;SDS011;9436;52.152;21.032;2023-02-20T11:35:33;10.40;;;7.63;;
18612;SDS011;9436;52.152;21.032;2023-02-20T11:38:22;8.57;;;7.10;;
18612;SDS011;9436;52.152;21.032;2023-02-20T11:41:00;8.83;;;7.17;;
18612;SDS011;9436;52.152;21.032;2023-02-20T11:43:34;8.67;;;7.30;;
18612;SDS011;9436;52.152;21.032;2023-02-20T11:46:06;9.53;;;7.93;;
18612;SDS011;9436;52.152;21.032;2023-02-20T11:48:35;9.37;;;8.03;;
18612;SDS011;9436;52.152;21.032;2023-02-20T11:51:03;9.33;;;8.23;;
18612;SDS011;9436;52.152;21.032;2023-02-20T11:53:31;10.87;;;8.70;;
18612;SDS011;9436;52.152;21.032;2023-02-20T11:56:06;10.87;;;8.73;;
18612;SDS011;9436;52.152;21.032;2023-02-20T11:58:35;10.33;;;8.53;;
18612;SDS011;9436;52.152;21.032;2023-02-20T12:01:03;9.93;;;8.03;;
18612;SDS011;9436;52.152;21.032;2023-02-20T12:03:31;10.67;;;8.30;;
18612;SDS011;9436;52.152;21.032;2023-02-20T12:06:00;9.43;;;7.93;;
18612;SDS011;9436;52.152;21.032;2023-02-20T12:08:50;11.87;;;8.27;;
18612;SDS011;9436;52.152;21.032;2023-02-20T12:11:22;9.97;;;7.70;;
18612;SDS011;9436;52.152;21.032;2023-02-20T12:13:52;10.00;;;7.60;;
18612;SDS011;9436;52.152;21.032;2023-02-20T12:16:22;10.20;;;8.40;;
18612;SDS011;9436;52.152;21.032;2023-02-20T12:18:58;10.37;;;7.73;;
18612;SDS011;9436;52.152;21.032;2023-02-20T12:21:36;8.43;;;7.30;;
18612;SDS011;9436;52.152;21.032;2023-02-20T12:24:26;10.10;;;7.60;;
18612;SDS011;9436;52.152;21.032;2023-02-20T12:27:07;10.23;;;7.43;;
18612;SDS011;9436;52.152;21.032;2023-02-20T12:29:49;12.73;;;8.10;;
18612;SDS011;9436;52.152;21.032;2023-02-20T12:32:26;9.33;;;7.77;;
18612;SDS011;9436;52.152;21.032;2023-02-20T12:37:58;11.10;;;7.90;;
18612;SDS011;9436;52.152;21.032;2023-02-20T12:40:46;10.10;;;8.17;;
18612;SDS011;9436;52.152;21.032;2023-02-20T12:43:24;9.03;;;7.70;;
18612;SDS011;9436;52.152;21.032;2023-02-20T12:45:57;8.90;;;7.83;;
18612;SDS011;9436;52.152;21.032;2023-02-20T12:48:34;10.97;;;7.87;;
18612;SDS011;9436;52.152;21.032;2023-02-20T12:51:17;9.63;;;8.03;;
18612;SDS011;9436;52.152;21.032;2023-02-20T12:53:55;11.60;;;8.33;;
18612;SDS011;9436;52.152;21.032;2023-02-20T12:56:36;9.97;;;8.17;;
18612;SDS011;9436;52.152;21.032;2023-02-20T12:59:15;10.47;;;8.27;;
18612;SDS011;9436;52.152;21.032;2023-02-20T13:01:51;11.70;;;8.57;;
18612;SDS011;9436;52.152;21.032;2023-02-20T13:04:22;10.20;;;8.40;;
18612;SDS011;9436;52.152;21.032;2023-02-20T13:06:55;10.27;;;8.40;;
18612;SDS011;9436;52.152;21.032;2023-02-20T13:09:28;10.87;;;9.03;;
18612;SDS011;9436;52.152;21.032;2023-02-20T13:12:01;10.07;;;8.43;;
18612;SDS011;9436;52.152;21.032;2023-02-20T13:14:34;10.83;;;8.70;;
18612;SDS011;9436;52.152;21.032;2023-02-20T13:17:17;10.77;;;8.27;;
18612;SDS011;9436;52.152;21.032;2023-02-20T13:19:53;10.47;;;8.47;;
18612;SDS011;9436;52.152;21.032;2023-02-20T13:22:23;10.40;;;8.03;;
18612;SDS011;9436;52.152;21.032;2023-02-20T13:24:50;10.47;;;8.13;;
18612;SDS011;9436;52.152;21.032;2023-02-20T13:27:28;11.30;;;8.70;;
18612;SDS011;9436;52.152;21.032;2023-02-20T13:29:57;9.30;;;8.13;;
18612;SDS011;9436;52.152;21.032;2023-02-20T13:32:26;9.47;;;7.97;;
18612;SDS011;9436;52.152;21.032;2023-02-20T13:37:55;10.13;;;8.10;;
18612;SDS011;9436;52.152;21.032;2023-02-20T13:40:39;10.33;;;8.53;;
18612;SDS011;9436;52.152;21.032;2023-02-20T13:43:19;9.77;;;8.20;;
18612;SDS011;9436;52.152;21.032;2023-02-20T13:46:14;9.97;;;8.37;;
18612;SDS011;9436;52.152;21.032;2023-02-20T13:48:50;8.80;;;7.70;;
18612;SDS011;9436;52.152;21.032;2023-02-20T13:54:11;10.07;;;8.07;;
18612;SDS011;9436;52.152;21.032;2023-02-20T13:56:52;9.50;;;7.57;;
18612;SDS011;9436;52.152;21.032;2023-02-20T13:59:25;9.03;;;7.50;;
18612;SDS011;9436;52.152;21.032;2023-02-20T14:01:54;9.30;;;7.37;;
18612;SDS011;9436;52.152;21.032;2023-02-20T14:04:22;9.90;;;7.73;;
18612;SDS011;9436;52.152;21.032;2023-02-20T14:06:50;9.47;;;7.47;;
18612;SDS011;9436;52.152;21.032;2023-02-20T14:09:19;9.30;;;6.80;;
18612;SDS011;9436;52.152;21.032;2023-02-20T14:11:48;9.00;;;7.23;;
18612;SDS011;9436;52.152;21.032;2023-02-20T14:14:21;10.87;;;7.17;;
18612;SDS011;9436;52.152;21.032;2023-02-20T14:17:02;8.40;;;6.43;;
18612;SDS011;9436;52.152;21.032;2023-02-20T14:19:31;8.93;;;8.02;;
18612;SDS011;9436;52.152;21.032;2023-02-20T14:24:59;10.70;;;7.33;;
18612;SDS011;9436;52.152;21.032;2023-02-20T14:27:47;8.60;;;6.63;;
18612;SDS011;9436;52.152;21.032;2023-02-20T14:30:16;8.17;;;6.77;;
18612;SDS011;9436;52.152;21.032;2023-02-20T14:32:45;8.60;;;7.03;;
18612;SDS011;9436;52.152;21.032;2023-02-20T14:35:32;7.40;;;6.27;;
18612;SDS011;9436;52.152;21.032;2023-02-20T14:38:11;8.33;;;6.90;;
18612;SDS011;9436;52.152;21.032;2023-02-20T14:40:44;10.03;;;6.07;;
18612;SDS011;9436;52.152;21.032;2023-02-20T14:43:14;7.57;;;6.23;;
18612;SDS011;9436;52.152;21.032;2023-02-20T14:45:46;8.73;;;6.40;;
18612;SDS011;9436;52.152;21.032;2023-02-20T14:48:24;6.87;;;5.93;;
18612;SDS011;9436;52.152;21.032;2023-02-20T14:53:39;6.73;;;5.60;;
18612;SDS011;9436;52.152;21.032;2023-02-20T14:56:11;9.13;;;6.27;;
18612;SDS011;9436;52.152;21.032;2023-02-20T14:58:40;8.13;;;5.93;;
18612;SDS011;9436;52.152;21.032;2023-02-20T15:01:19;10.37;;;6.57;;
18612;SDS011;9436;52.152;21.032;2023-02-20T15:04:02;7.53;;;5.80;;
18612;SDS011;9436;52.152;21.032;2023-02-20T15:06:33;6.20;;;5.60;;
18612;SDS011;9436;52.152;21.032;2023-02-20T15:09:02;6.83;;;5.80;;
18612;SDS011;9436;52.152;21.032;2023-02-20T15:11:31;8.47;;;5.87;;
18612;SDS011;9436;52.152;21.032;2023-02-20T15:13:59;7.30;;;6.13;;
18612;SDS011;9436;52.152;21.032;2023-02-20T15:16:29;7.00;;;5.87;;
18612;SDS011;9436;52.152;21.032;2023-02-20T15:18:59;7.50;;;5.37;;
18612;SDS011;9436;52.152;21.032;2023-02-20T15:21:34;7.13;;;5.43;;
18612;SDS011;9436;52.152;21.032;2023-02-20T15:27:05;7.47;;;5.60;;
18612;SDS011;9436;52.152;21.032;2023-02-20T15:29:34;5.97;;;5.23;;
18612;SDS011;9436;52.152;21.032;2023-02-20T15:32:03;6.63;;;5.20;;